Portada
METAR-TAF:

METAR-TAF

Aeroports :

Aeroport Internacional Joan Pau II de Cracòvia-Balice

Cracòvia, Polònia

latitud: 50-05N, longitud: 019-48E, altitud: 237 m

Observació

L'informe es va fer fa 29 minuts, a les 19:00 UTC
Vent 3 kt del Nord/Nord-Oest
Temperatura 17°C
Humitat 55%
Pressió 1020 hPa
Visibilitat 10 km o més
sense núvols per sota de 1500 mi sense presència de cumulonimbus.

METAR: EPKK 141900Z 34003KT CAVOK 17/08 Q1020

Hora: 21:29 (19:29 UTC)

Pronòstic

L'informe es va fer fa 1 hora i 59 minuts, a les 17:30 UTC
Pronòstic vàlid del 14 a les 18 UTC al 15 a les 18 UTC
Vent 5 kt del Nord
Visibilitat 10 km o més
sense núvols per sota de 1500 mi sense presència de cumulonimbus.

TAF: EPKK 141730Z 1418/1518 01005KT CAVOK

Observacions i pronòstics meteorològics de més de 4000 aeroports (METAR i TAF).

Les estacions disponibles són els punts grocs i vermells al mapa.

Posi el ratolí al punt desitjat per veure el nom de l'estació.

Feu clic per veure les observacions i els pronòstics meteorològics.

Per canviar el mapa: feu clic els botons verds amb una creu de color negre per apropar; al botó verd amb un guió per allunyar la imatge; o en les fletxes verdes per a mapes adjacents.


METAR-TAF: